Blue Springs, MS (38828)

4:38 PM CST on December 02, 2016 (GMT -0600)
APRSWXNET | | Change Station

Elev 370 ft 34.36 °N, 88.84 °W | Updated 26 minutes ago

Clear
Clear
57 °F
Feels Like 57 °F
N
0
Wind Variable Wind from West
Gusts 0.0 mph

Today
High -- | Low -- °F
--% Chance of Precip.
Yesterday
High -- | Low -- °F
Precip. -- in
Pressure 30.25 in
Visibility 10.0 miles
Clouds Clear
Dew Point 32 °F
Humidity 38%
Rainfall in
Snow Depth Not available.
6:44 AM 4:45 PM
Waxing Crescent, 11% visible
METAR KTUP 022153Z AUTO 00000KT 10SM CLR 16/M04 A3025 RMK AO2 SLP243 T01611044
Pressure 30.25 in
Visibility 10.0 miles
Clouds Clear
Dew Point 32 °F
Humidity 38%
Rainfall in
Snow Depth Not available.
6:44 AM 4:45 PM
Waxing Crescent, 11% visible
METAR KTUP 022153Z AUTO 00000KT 10SM CLR 16/M04 A3025 RMK AO2 SLP243 T01611044

10-Day Weather Forecast

Almanac

Astronomy

Dec. 02, 2016 Rise Set
Actual Time
Civil Twilight
Nautical Twilight
Astronomical Twilight
Moon
Length of Visible Light
Length of Day
Tomorrow will be .
, % of the Moon is Illuminated

Today's Extremes

State Highs State Lows

Community

WunderPhotos

Upload Photos

1,955,376 photos uploaded!

WunderBlog® & News

Nearby

Air Quality

  Air Quality AQ Index Pollutant
Not available.

Snow Depth

Station Depth Elevation

Earthquake Activity

City Distance Mag. Time & Date
Minimum magnitude displayed is 2.5.

Coastal Water Temperatures

Place Temperature

Stations

Nearby Weather Stations

Station Location Temp. Windchill Dew Point Humidity Wind Precip. Elev Updated Type
                   

Watches & Warnings

There are currently no watches in effect.